Time;durP1;ratioP1;P1;durP2;ratioP2;P2;SDS_P1;SDS_P2;PMS_P1;PMS_P2;Temp;Humidity;BMP_temperature;BMP_pressure;BME280_temperature;BME280_humidity;BME280_pressure;Samples;Min_cycle;Max_cycle;Signal;HPM_P1;HPM_P2
2021/08/04 00:00:54;;;;;;;;;;;;;;;16.02;100.00;100602.34;5112489;28;20027;-72
2021/08/04 00:03:20;;;;;;;;;;;;;;;16.02;100.00;100597.75;5112930;27;20056;-72
2021/08/04 00:05:47;;;;;;;;;;;;;;;16.02;100.00;100597.75;5112636;28;20018;-72
2021/08/04 00:08:14;;;;;;;;;;;;;;;16.06;100.00;100601.00;5112471;28;19924;-72
2021/08/04 00:10:40;;;;;;;;;;;;;;;16.06;100.00;100596.41;5112687;28;20345;-72
2021/08/04 00:13:06;;;;;;;;;;;;;;;16.11;100.00;100606.84;5112765;28;20018;-72
2021/08/04 00:15:33;;;;;;;;;;;;;;;16.12;100.00;100599.50;5112550;28;19967;-72
2021/08/04 00:17:59;;;;;;;;;;;;;;;16.12;100.00;100605.84;5112022;28;19986;-72
2021/08/04 00:20:25;;;;;;;;;;;;;;;16.11;100.00;100604.09;5112698;28;19977;-72
2021/08/04 00:22:53;;;;;;;;;;;;;;;16.10;100.00;100604.28;5112222;28;19923;-72
2021/08/04 00:25:19;;;;;;;;;;;;;;;16.09;100.00;100608.91;5112383;28;20474;-72
2021/08/04 00:27:45;;;;;;;;;;;;;;;16.07;100.00;100605.47;5112297;28;20006;-72
2021/08/04 00:30:12;;;;;;;;;;;;;;;16.05;100.00;100608.38;5111035;28;19924;-72
2021/08/04 00:32:38;;;;;;;;;;;;;;;16.03;100.00;100599.47;5112396;28;20022;-72
2021/08/04 00:35:05;;;;;;;;;;;;;;;16.01;100.00;100596.03;5110773;28;19974;-72
2021/08/04 00:37:32;;;;;;;;;;;;;;;15.97;100.00;100594.66;5110887;28;19973;-68
2021/08/04 00:40:00;;;;;;;;;;;;;;;15.92;100.00;100597.00;5110931;28;20421;-68
2021/08/04 00:42:27;;;;;;;;;;;;;;;15.87;100.00;100591.16;5112088;28;20379;-68
2021/08/04 00:44:54;;;;;;;;;;;;;;;15.83;100.00;100596.13;5112204;28;19934;-68
2021/08/04 00:47:21;;;;;;;;;;;;;;;15.82;100.00;100597.13;5109959;28;19928;-68
2021/08/04 00:49:48;;;;;;;;;;;;;;;15.76;100.00;100600.47;5112165;28;19928;-68
2021/08/04 00:52:15;;;;;;;;;;;;;;;15.69;100.00;100592.06;5110861;28;19924;-68
2021/08/04 00:54:41;;;;;;;;;;;;;;;15.66;100.00;100597.84;5110461;28;19923;-70
2021/08/04 00:57:09;;;;;;;;;;;;;;;15.61;100.00;100593.91;5111569;28;20022;-71
2021/08/04 00:59:36;;;;;;;;;;;;;;;15.54;100.00;100597.25;5110878;28;20307;-71
2021/08/04 01:02:06;;;;;;;;;;;;;;;15.50;100.00;100598.59;5110619;28;19930;-71
2021/08/04 01:04:37;;;;;;;;;;;;;;;15.45;100.00;100600.09;5111813;28;19923;-71
2021/08/04 01:07:05;;;;;;;;;;;;;;;15.42;100.00;100600.41;5111633;28;19963;-72
2021/08/04 01:09:41;;;;;;;;;;;;;;;15.36;100.00;100594.56;5110601;28;20280;-72
2021/08/04 01:12:08;;;;;;;;;;;;;;;15.32;100.00;100595.88;5110563;28;19924;-72
2021/08/04 01:14:37;;;;;;;;;;;;;;;15.26;100.00;100606.59;5111597;28;19977;-72
2021/08/04 01:17:05;;;;;;;;;;;;;;;15.22;100.00;100608.81;5110341;28;20195;-72
2021/08/04 01:19:38;;;;;;;;;;;;;;;15.17;100.00;100605.69;5110763;28;19924;-72
2021/08/04 01:22:18;;;;;;;;;;;;;;;15.10;100.00;100608.19;5110463;28;19966;-72
2021/08/04 01:24:48;;;;;;;;;;;;;;;15.07;100.00;100605.75;5111681;28;19924;-72
2021/08/04 01:27:16;;;;;;;;;;;;;;;15.07;100.00;100603.91;5110218;28;19930;-72
2021/08/04 01:29:43;;;;;;;;;;;;;;;15.05;100.00;100610.53;5110445;28;20393;-72
2021/08/04 01:32:10;;;;;;;;;;;;;;;15.06;100.00;100604.91;5111414;28;19942;-71
2021/08/04 01:34:37;;;;;;;;;;;;;;;15.05;100.00;100600.44;5093779;28;19924;-72
2021/08/04 01:37:05;;;;;;;;;;;;;;;15.06;100.00;100604.06;5110065;28;19928;-72
2021/08/04 01:39:32;;;;;;;;;;;;;;;15.07;100.00;100601.16;5111768;28;19946;-72
2021/08/04 01:41:59;;;;;;;;;;;;;;;15.09;100.00;100601.00;5111335;28;19974;-72
2021/08/04 01:44:28;;;;;;;;;;;;;;;15.11;100.00;100593.50;5110313;28;20023;-72
2021/08/04 01:46:55;;;;;;;;;;;;;;;15.11;100.00;100592.66;5109792;28;19924;-71
2021/08/04 01:49:22;;;;;;;;;;;;;;;15.10;100.00;100591.78;5111280;28;19924;-71
2021/08/04 01:51:49;;;;;;;;;;;;;;;15.10;100.00;100596.38;5110266;28;20394;-72
2021/08/04 01:54:16;;;;;;;;;;;;;;;15.07;100.00;100594.81;5110119;28;20026;-71
2021/08/04 01:56:43;;;;;;;;;;;;;;;15.06;100.00;100602.19;5110135;28;20454;-72
2021/08/04 01:59:10;;;;;;;;;;;;;;;15.06;100.00;100607.66;5093782;28;19931;-71
2021/08/04 02:01:37;;;;;;;;;;;;;;;15.09;100.00;100600.16;5113884;28;20023;-71
2021/08/04 02:04:04;;;;;;;;;;;;;;;15.09;100.00;100606.47;5113426;28;19924;-71
2021/08/04 02:06:33;;;;;;;;;;;;;;;15.11;100.00;100600.84;5113965;28;19924;-71
2021/08/04 02:09:01;;;;;;;;;;;;;;;15.07;100.00;100595.69;5114537;28;19931;-68
2021/08/04 02:11:31;;;;;;;;;;;;;;;15.06;100.00;100596.72;5113709;28;20051;-71
2021/08/04 02:14:03;;;;;;;;;;;;;;;15.08;100.00;100599.28;5114952;28;20018;-71
2021/08/04 02:16:31;;;;;;;;;;;;;;;15.10;100.00;100597.25;5114835;27;19923;-71
2021/08/04 02:19:05;;;;;;;;;;;;;;;15.09;100.00;100600.16;5113314;28;19930;-71
2021/08/04 02:21:34;;;;;;;;;;;;;;;15.09;100.00;100600.16;5113802;28;19927;-71
2021/08/04 02:24:01;;;;;;;;;;;;;;;15.10;100.00;100594.53;5113099;28;19969;-71
2021/08/04 02:26:29;;;;;;;;;;;;;;;15.07;100.00;100603.03;5113191;28;20363;-71
2021/08/04 02:28:57;;;;;;;;;;;;;;;15.06;100.00;100596.72;5113011;28;19977;-71
2021/08/04 02:31:23;;;;;;;;;;;;;;;15.07;100.00;100601.16;5115003;28;19977;-71
2021/08/04 02:33:51;;;;;;;;;;;;;;;15.09;100.00;100590.06;5114700;28;19931;-72
2021/08/04 02:36:19;;;;;;;;;;;;;;;15.08;100.00;100596.53;5113151;28;19927;-72
2021/08/04 02:38:46;;;;;;;;;;;;;;;15.07;100.00;100603.91;5114249;27;20405;-72
2021/08/04 02:41:13;;;;;;;;;;;;;;;15.06;100.00;100595.88;5113007;28;20000;-72
2021/08/04 02:43:40;;;;;;;;;;;;;;;15.05;100.00;100605.06;5114346;28;19977;-71
2021/08/04 02:46:06;;;;;;;;;;;;;;;15.03;100.00;100594.31;5113876;28;19976;-71
2021/08/04 02:48:34;;;;;;;;;;;;;;;15.04;100.00;100606.09;5114225;28;19924;-71
2021/08/04 02:51:04;;;;;;;;;;;;;;;15.04;100.00;100603.34;5114341;28;19955;-70
2021/08/04 02:53:31;;;;;;;;;;;;;;;15.03;100.00;100607.97;5114206;28;19930;-71
2021/08/04 02:55:58;;;;;;;;;;;;;;;15.00;100.00;100613.72;5113954;28;19930;-72
2021/08/04 02:58:25;;;;;;;;;;;;;;;14.99;100.00;100608.41;5113930;28;19930;-72
2021/08/04 03:00:51;;;;;;;;;;;;;;;14.97;100.00;100603.13;5114020;28;19969;-71
2021/08/04 03:03:18;;;;;;;;;;;;;;;14.95;100.00;100605.16;5113599;28;19927;-70
2021/08/04 03:05:44;;;;;;;;;;;;;;;14.95;100.00;100604.28;5113847;28;20387;-70
2021/08/04 03:08:11;;;;;;;;;;;;;;;14.95;100.00;100604.28;5112534;28;19927;-68
2021/08/04 03:10:39;;;;;;;;;;;;;;;14.93;100.00;100603.59;5113377;28;19924;-68
2021/08/04 03:13:05;;;;;;;;;;;;;;;14.94;100.00;100608.03;5112574;28;19931;-68
2021/08/04 03:15:33;;;;;;;;;;;;;;;14.95;100.00;100607.00;5112477;28;19923;-69
2021/08/04 03:17:59;;;;;;;;;;;;;;;14.96;100.00;100608.75;5113181;28;19924;-68
2021/08/04 03:20:26;;;;;;;;;;;;;;;14.98;100.00;100603.97;5112090;28;20387;-68
2021/08/04 03:22:52;;;;;;;;;;;;;;;14.97;100.00;100611.31;5102674;28;19970;-68
2021/08/04 03:25:19;;;;;;;;;;;;;;;14.97;100.00;100614.03;5113221;28;19924;-69
2021/08/04 03:27:47;;;;;;;;;;;;;;;14.98;100.00;100610.31;5113540;28;19923;-68
2021/08/04 03:30:13;;;;;;;;;;;;;;;15.00;100.00;100623.81;5113788;28;19959;-67
2021/08/04 03:32:39;;;;;;;;;;;;;;;15.01;100.00;100611.88;5113297;28;20026;-67
2021/08/04 03:35:06;;;;;;;;;;;;;;;15.01;100.00;100618.19;5114075;28;20430;-68
2021/08/04 03:37:33;;;;;;;;;;;;;;;15.00;100.00;100621.06;5107384;28;19967;-68
2021/08/04 03:39:59;;;;;;;;;;;;;;;14.97;100.00;100622.25;5093331;28;20015;-68
2021/08/04 03:42:25;;;;;;;;;;;;;;;14.97;100.00;100621.41;5103284;28;19959;-68
2021/08/04 03:44:53;;;;;;;;;;;;;;;14.96;100.00;100620.53;5094858;28;20023;-68
2021/08/04 03:47:19;;;;;;;;;;;;;;;14.95;100.00;100620.69;5093807;28;20003;-73
2021/08/04 03:49:45;;;;;;;;;;;;;;;14.91;100.00;100620.13;5091826;28;19924;-73
2021/08/04 03:52:12;;;;;;;;;;;;;;;14.89;100.00;100628.47;5102684;28;20004;-72
2021/08/04 03:54:38;;;;;;;;;;;;;;;14.90;100.00;100626.63;5113190;28;19955;-73
2021/08/04 03:57:04;;;;;;;;;;;;;;;14.90;100.00;100624.75;5111227;28;19967;-72
2021/08/04 03:59:31;;;;;;;;;;;;;;;14.90;100.00;100630.22;5103548;28;19975;-73
2021/08/04 04:01:58;;;;;;;;;;;;;;;14.88;100.00;100626.78;5092895;28;19958;-67
2021/08/04 04:04:24;;;;;;;;;;;;;;;14.86;100.00;100638.88;5106926;28;19971;-67
2021/08/04 04:06:51;;;;;;;;;;;;;;;14.82;100.00;100641.06;5112821;28;19927;-68
2021/08/04 04:09:18;;;;;;;;;;;;;;;14.85;100.00;100645.34;5111219;28;20014;-68
2021/08/04 04:11:44;;;;;;;;;;;;;;;14.86;100.00;100647.94;5095622;28;19928;-68
2021/08/04 04:14:10;;;;;;;;;;;;;;;14.86;100.00;100650.66;5103160;28;19963;-68
2021/08/04 04:16:37;;;;;;;;;;;;;;;14.83;100.00;100644.66;5096694;28;20387;-68
2021/08/04 04:19:04;;;;;;;;;;;;;;;14.82;100.00;100646.53;5093103;28;19948;-68
2021/08/04 04:21:32;;;;;;;;;;;;;;;14.83;100.00;100648.25;5095081;28;19957;-71
2021/08/04 04:23:58;;;;;;;;;;;;;;;14.88;100.00;100648.66;5112303;28;19963;-73
2021/08/04 04:26:24;;;;;;;;;;;;;;;14.93;100.00;100644.59;5100779;28;20023;-67
2021/08/04 04:28:50;;;;;;;;;;;;;;;14.97;100.00;100657.78;5092078;28;19960;-67
2021/08/04 04:31:17;;;;;;;;;;;;;;;15.00;100.00;100645.69;5092140;28;20462;-67
2021/08/04 04:33:43;;;;;;;;;;;;;;;14.99;100.00;100650.31;5092648;28;19955;-67
2021/08/04 04:36:10;;;;;;;;;;;;;;;15.03;100.00;100650.81;5091978;28;19931;-67
2021/08/04 04:38:37;;;;;;;;;;;;;;;15.07;100.00;100655.84;5092022;28;20014;-67
2021/08/04 04:41:03;;;;;;;;;;;;;;;15.11;100.00;100650.06;5091840;28;20019;-67
2021/08/04 04:43:29;;;;;;;;;;;;;;;15.11;100.00;100653.63;5092100;28;20054;-67
2021/08/04 04:45:55;;;;;;;;;;;;;;;15.09;100.00;100652.94;5091925;28;19951;-73
2021/08/04 04:48:22;;;;;;;;;;;;;;;15.11;100.00;100659.09;5091569;28;20343;-73
2021/08/04 04:50:48;;;;;;;;;;;;;;;15.11;100.00;100655.53;5091923;28;19968;-73
2021/08/04 04:53:16;;;;;;;;;;;;;;;15.11;100.00;100653.63;5091590;28;19960;-73
2021/08/04 04:55:42;;;;;;;;;;;;;;;15.18;100.00;100662.94;5092124;28;19967;-73
2021/08/04 04:58:08;;;;;;;;;;;;;;;15.23;100.00;100668.81;5091412;28;19932;-72
2021/08/04 05:00:34;;;;;;;;;;;;;;;15.28;100.00;100675.69;5091905;28;20015;-73
2021/08/04 05:03:01;;;;;;;;;;;;;;;15.29;100.00;100674.66;5091802;28;19979;-71
2021/08/04 05:05:27;;;;;;;;;;;;;;;15.36;100.00;100670.28;5091573;28;20501;-71
2021/08/04 05:07:53;;;;;;;;;;;;;;;15.45;100.00;100680.28;5091579;28;19978;-72
2021/08/04 05:10:21;;;;;;;;;;;;;;;15.40;100.00;100679.88;5091565;28;19924;-71
2021/08/04 05:12:47;;;;;;;;;;;;;;;15.44;100.00;100684.03;5091814;28;19963;-71
2021/08/04 05:15:14;;;;;;;;;;;;;;;15.55;100.00;100688.38;5091486;28;19963;-71
2021/08/04 05:17:40;;;;;;;;;;;;;;;15.66;100.00;100684.53;5091546;28;19963;-72
2021/08/04 05:20:07;;;;;;;;;;;;;;;15.73;100.00;100680.16;5091930;28;20019;-72
2021/08/04 05:22:33;;;;;;;;;;;;;;;15.72;100.00;100687.50;5091507;28;19963;-72
2021/08/04 05:24:59;;;;;;;;;;;;;;;15.68;100.00;100682.50;5091569;28;19971;-70
2021/08/04 05:27:27;;;;;;;;;;;;;;;15.70;100.00;100684.06;5107209;28;19924;-71
2021/08/04 05:29:53;;;;;;;;;;;;;;;15.82;100.00;100687.44;5112348;28;20030;-74
2021/08/04 05:32:20;;;;;;;;;;;;;;;15.93;100.00;100685.44;5112206;28;20023;-73
2021/08/04 05:34:46;;;;;;;;;;;;;;;16.05;100.00;100678.69;5115731;28;20027;-73
2021/08/04 05:37:12;;;;;;;;;;;;;;;16.01;100.00;100680.03;5115693;28;19958;-68
2021/08/04 05:39:38;;;;;;;;;;;;;;;16.11;100.00;100683.50;5115826;28;19974;-68
2021/08/04 05:42:05;;;;;;;;;;;;;;;16.17;100.00;100682.88;5114813;28;19924;-69
2021/08/04 05:44:33;;;;;;;;;;;;;;;16.29;100.00;100683.47;5115773;28;20267;-68
2021/08/04 05:46:59;;;;;;;;;;;;;;;16.40;100.00;100677.69;5114860;28;19963;-66
2021/08/04 05:49:25;;;;;;;;;;;;;;;16.50;100.00;100680.31;5115994;28;19927;-66
2021/08/04 05:51:52;;;;;;;;;;;;;;;16.55;100.00;100677.94;5119467;28;20380;-68
2021/08/04 05:54:19;;;;;;;;;;;;;;;16.59;100.00;100672.13;5118601;28;19928;-68
2021/08/04 05:56:45;;;;;;;;;;;;;;;16.74;100.00;100681.41;5118053;28;20466;-68
2021/08/04 05:59:12;;;;;;;;;;;;;;;16.94;100.00;100684.75;5118627;28;19931;-68
2021/08/04 06:01:39;;;;;;;;;;;;;;;17.04;100.00;100685.47;5118734;28;20295;-68
2021/08/04 06:04:05;;;;;;;;;;;;;;;17.11;100.00;100685.66;5119644;28;19967;-68
2021/08/04 06:06:32;;;;;;;;;;;;;;;17.21;100.00;100680.88;5119314;28;19967;-68
2021/08/04 06:08:58;;;;;;;;;;;;;;;17.20;100.00;100683.78;5119727;28;20367;-68
2021/08/04 06:11:24;;;;;;;;;;;;;;;17.17;100.00;100685.00;5118998;28;19930;-68
2021/08/04 06:13:51;;;;;;;;;;;;;;;17.20;100.00;100695.59;5118553;28;20415;-68
2021/08/04 06:16:17;;;;;;;;;;;;;;;17.15;100.00;100683.44;5121402;28;19992;-68
2021/08/04 06:18:45;;;;;;;;;;;;;;;17.22;100.00;100696.31;5122455;28;19959;-68
2021/08/04 06:21:11;;;;;;;;;;;;;;;17.35;100.00;100695.78;5119546;28;19974;-68
2021/08/04 06:23:37;;;;;;;;;;;;;;;17.36;100.00;100692.03;5120053;28;19946;-68
2021/08/04 06:26:04;;;;;;;;;;;;;;;17.67;100.00;100691.34;5119472;28;19953;-68
2021/08/04 06:28:30;;;;;;;;;;;;;;;18.10;100.00;100685.66;5118423;28;19924;-68
2021/08/04 06:30:56;;;;;;;;;;;;;;;18.58;100.00;100683.78;5116771;28;19976;-67
2021/08/04 06:33:22;;;;;;;;;;;;;;;19.10;100.00;100681.50;5115349;28;19963;-68
2021/08/04 06:35:50;;;;;;;;;;;;;;;19.87;100.00;100672.31;5114921;28;20301;-67
2021/08/04 06:38:16;;;;;;;;;;;;;;;20.71;100.00;100676.72;5114598;28;19963;-71
2021/08/04 06:40:43;;;;;;;;;;;;;;;21.19;100.00;100678.97;5114868;28;19951;-71
2021/08/04 06:43:09;;;;;;;;;;;;;;;21.68;100.00;100671.81;5114726;28;20456;-71
2021/08/04 06:45:35;;;;;;;;;;;;;;;22.32;100.00;100675.47;5113923;28;19977;-71
2021/08/04 06:48:01;;;;;;;;;;;;;;;22.54;100.00;100667.09;5114360;28;19967;-71
2021/08/04 06:50:29;;;;;;;;;;;;;;;22.49;100.00;100670.50;5114877;28;19958;-71
2021/08/04 06:52:56;;;;;;;;;;;;;;;22.41;100.00;100662.38;5114347;28;20491;-68
2021/08/04 06:55:23;;;;;;;;;;;;;;;22.44;100.00;100661.09;5114303;28;20398;-68
2021/08/04 06:57:49;;;;;;;;;;;;;;;22.69;100.00;100665.03;5114188;28;19963;-67
2021/08/04 07:00:15;;;;;;;;;;;;;;;23.27;100.00;100666.53;5114046;28;19923;-68
2021/08/04 07:02:41;;;;;;;;;;;;;;;23.80;100.00;100660.19;5114174;28;20014;-72
2021/08/04 07:05:08;;;;;;;;;;;;;;;23.36;100.00;100665.25;5113754;28;20482;-73
2021/08/04 07:07:34;;;;;;;;;;;;;;;22.43;100.00;100660.22;5113957;28;20014;-73
2021/08/04 07:10:02;;;;;;;;;;;;;;;22.39;100.00;100661.69;5112681;28;20421;-72
2021/08/04 07:12:28;;;;;;;;;;;;;;;22.26;100.00;100656.94;5114130;28;19951;-73
2021/08/04 07:14:55;;;;;;;;;;;;;;;21.89;100.00;100670.06;5113946;28;20014;-73
2021/08/04 07:17:21;;;;;;;;;;;;;;;21.70;100.00;100663.31;5113594;28;20060;-67
2021/08/04 07:19:47;;;;;;;;;;;;;;;21.79;100.00;100678.69;5113889;28;19967;-67
2021/08/04 07:22:13;;;;;;;;;;;;;;;21.29;100.00;100677.78;5113610;28;20023;-67
2021/08/04 07:24:40;;;;;;;;;;;;;;;21.23;100.00;100680.28;5113539;28;20438;-73
2021/08/04 07:27:07;;;;;;;;;;;;;;;21.39;100.00;100687.47;5113262;28;20370;-72
2021/08/04 07:29:34;;;;;;;;;;;;;;;21.67;100.00;100691.34;5113655;28;19923;-72
2021/08/04 07:32:00;;;;;;;;;;;;;;;22.45;100.00;100685.78;5113267;28;19955;-72
2021/08/04 07:34:27;;;;;;;;;;;;;;;23.19;100.00;100681.41;5113573;28;20022;-73
2021/08/04 07:36:53;;;;;;;;;;;;;;;23.84;100.00;100680.00;5113764;28;19924;-72
2021/08/04 07:39:20;;;;;;;;;;;;;;;24.43;100.00;100682.94;5113278;28;20003;-72
2021/08/04 07:41:47;;;;;;;;;;;;;;;23.76;100.00;100681.06;5113361;28;19997;-71
2021/08/04 07:44:14;;;;;;;;;;;;;;;23.34;100.00;100684.03;5113304;28;20040;-71
2021/08/04 07:46:41;;;;;;;;;;;;;;;22.80;100.00;100682.97;5113244;28;19967;-71
2021/08/04 07:49:07;;;;;;;;;;;;;;;23.01;100.00;100678.34;5113047;28;20023;-71
2021/08/04 07:51:33;;;;;;;;;;;;;;;23.23;100.00;100677.16;5113157;28;19928;-71
2021/08/04 07:54:00;;;;;;;;;;;;;;;23.59;100.00;100686.16;5113222;28;19963;-68
2021/08/04 07:56:26;;;;;;;;;;;;;;;23.13;100.00;100687.81;5112204;28;20287;-67
2021/08/04 07:58:53;;;;;;;;;;;;;;;23.42;100.00;100680.19;5112635;28;19932;-67
2021/08/04 08:01:21;;;;;;;;;;;;;;;24.62;100.00;100678.38;5111555;28;20280;-68
2021/08/04 08:03:47;;;;;;;;;;;;;;;24.53;100.00;100680.53;5112990;28;20018;-68
2021/08/04 08:06:13;;;;;;;;;;;;;;;25.70;100.00;100685.94;5112780;28;20366;-68
2021/08/04 08:08:40;;;;;;;;;;;;;;;26.13;100.00;100684.28;5113799;28;20010;-73
2021/08/04 08:11:06;;;;;;;;;;;;;;;25.50;100.00;100679.69;5117934;28;19946;-72
2021/08/04 08:13:33;;;;;;;;;;;;;;;24.71;100.00;100674.34;5118916;28;19935;-72
2021/08/04 08:15:59;;;;;;;;;;;;;;;24.44;100.00;100673.53;5120867;28;19924;-73
2021/08/04 08:18:27;;;;;;;;;;;;;;;24.26;100.00;100685.31;5117471;28;19989;-72
2021/08/04 08:20:53;;;;;;;;;;;;;;;23.74;100.00;100677.66;5118637;28;20425;-73
2021/08/04 08:23:19;;;;;;;;;;;;;;;23.05;100.00;100682.44;5117854;28;19934;-67
2021/08/04 08:25:45;;;;;;;;;;;;;;;23.14;100.00;100683.94;5115754;28;19967;-68
2021/08/04 08:28:12;;;;;;;;;;;;;;;23.00;100.00;100684.97;5116429;28;19970;-72
2021/08/04 08:30:38;;;;;;;;;;;;;;;22.81;100.00;100681.91;5117127;28;19962;-73
2021/08/04 08:33:05;;;;;;;;;;;;;;;22.66;100.00;100683.97;5115134;28;20454;-71
2021/08/04 08:35:33;;;;;;;;;;;;;;;22.57;100.00;100681.38;5115424;28;20627;-71
2021/08/04 08:37:59;;;;;;;;;;;;;;;22.79;100.00;100678.47;5115681;28;19963;-71
2021/08/04 08:40:25;;;;;;;;;;;;;;;22.99;100.00;100683.25;5116286;27;19924;-71
2021/08/04 08:42:52;;;;;;;;;;;;;;;23.55;100.00;100690.44;5115783;28;19963;-72
2021/08/04 08:45:19;;;;;;;;;;;;;;;24.11;100.00;100683.63;5117267;28;20022;-73
2021/08/04 08:47:45;;;;;;;;;;;;;;;24.49;100.00;100679.28;5117501;28;19950;-73
2021/08/04 08:50:12;;;;;;;;;;;;;;;24.86;100.00;100676.81;5112358;28;19977;-73
2021/08/04 08:52:40;;;;;;;;;;;;;;;25.33;100.00;100685.72;5112089;28;20018;-73
2021/08/04 08:55:08;;;;;;;;;;;;;;;25.45;99.18;100680.34;5110830;28;20027;-73
2021/08/04 08:57:34;;;;;;;;;;;;;;;25.68;98.47;100687.22;5112469;28;19923;-71
2021/08/04 09:00:01;;;;;;;;;;;;;;;25.10;99.06;100677.97;5112166;28;20007;-71
2021/08/04 09:02:28;;;;;;;;;;;;;;;25.56;99.14;100682.41;5112161;28;20394;-65
2021/08/04 09:04:58;;;;;;;;;;;;;;;26.20;92.24;100673.09;5111800;28;19930;-68
2021/08/04 09:07:31;;;;;;;;;;;;;;;27.56;88.62;100667.28;5111928;28;20366;-68
2021/08/04 09:09:59;;;;;;;;;;;;;;;27.68;79.93;100675.69;5111943;28;20378;-73
2021/08/04 09:12:25;;;;;;;;;;;;;;;26.90;81.70;100669.13;5112211;28;20018;-73
2021/08/04 09:14:52;;;;;;;;;;;;;;;26.37;90.40;100663.06;5111949;28;20390;-73
2021/08/04 09:17:18;;;;;;;;;;;;;;;26.22;92.56;100679.31;5111516;28;20124;-73
2021/08/04 09:19:46;;;;;;;;;;;;;;;25.74;95.31;100673.28;5112064;28;19959;-73
2021/08/04 09:22:14;;;;;;;;;;;;;;;25.25;99.47;100677.66;5111631;28;19930;-73
2021/08/04 09:24:53;;;;;;;;;;;;;;;24.78;98.99;100677.91;5112093;28;20378;-72
2021/08/04 09:27:21;;;;;;;;;;;;;;;24.44;98.38;100668.84;5111556;28;20026;-73
2021/08/04 09:29:57;;;;;;;;;;;;;;;24.33;99.78;100673.16;5111947;28;19982;-71
2021/08/04 09:32:23;;;;;;;;;;;;;;;23.79;98.64;100675.09;5111886;28;20014;-71
2021/08/04 09:34:49;;;;;;;;;;;;;;;24.10;99.69;100678.31;5111694;28;20022;-70
2021/08/04 09:37:18;;;;;;;;;;;;;;;24.57;98.57;100671.56;5111248;28;19985;-71
2021/08/04 09:39:45;;;;;;;;;;;;;;;25.23;100.00;100674.28;5111646;28;19924;-71
2021/08/04 09:42:12;;;;;;;;;;;;;;;25.92;97.58;100670.78;5111902;28;19959;-72
2021/08/04 09:44:53;;;;;;;;;;;;;;;25.98;84.27;100665.16;5111593;28;19924;-71
2021/08/04 09:47:19;;;;;;;;;;;;;;;25.35;90.72;100674.47;5111318;28;20386;-71
2021/08/04 09:49:53;;;;;;;;;;;;;;;24.65;91.03;100675.19;5111521;28;19924;-71
2021/08/04 09:52:20;;;;;;;;;;;;;;;24.33;89.88;100663.97;5111580;28;20022;-71
2021/08/04 09:54:46;;;;;;;;;;;;;;;24.24;89.81;100671.69;5111480;28;20021;-71
2021/08/04 09:57:12;;;;;;;;;;;;;;;24.15;91.62;100673.81;5111302;28;20353;-71
2021/08/04 09:59:39;;;;;;;;;;;;;;;24.03;93.68;100673.59;5111727;28;19923;-71
2021/08/04 10:02:26;;;;;;;;;;;;;;;23.65;99.44;100670.59;5111271;28;19931;-71
2021/08/04 10:05:07;;;;;;;;;;;;;;;23.63;98.56;100665.28;5111348;28;19928;-71
2021/08/04 10:07:33;;;;;;;;;;;;;;;23.72;97.63;100665.94;5111084;28;19970;-71
2021/08/04 10:10:00;;;;;;;;;;;;;;;23.35;99.66;100660.78;5111640;28;19924;-71
2021/08/04 10:12:26;;;;;;;;;;;;;;;23.15;100.00;100670.97;5111326;28;20379;-71
2021/08/04 10:14:53;;;;;;;;;;;;;;;23.01;100.00;100670.03;5111287;28;19938;-71
2021/08/04 10:17:20;;;;;;;;;;;;;;;22.87;100.00;100664.47;5111191;28;20038;-71
2021/08/04 10:19:47;;;;;;;;;;;;;;;23.34;100.00;100666.53;5111370;28;19924;-71
2021/08/04 10:22:13;;;;;;;;;;;;;;;24.09;94.80;100658.03;5115018;28;19971;-72
2021/08/04 10:24:43;;;;;;;;;;;;;;;24.70;90.48;100658.75;5113401;28;20381;-73
2021/08/04 10:27:09;;;;;;;;;;;;;;;24.51;89.97;100661.34;5114695;28;20027;-73
2021/08/04 10:29:36;;;;;;;;;;;;;;;24.62;89.31;100656.19;5114759;28;19923;-67
2021/08/04 10:32:02;;;;;;;;;;;;;;;24.56;88.44;100658.78;5114568;28;19924;-67
2021/08/04 10:34:30;;;;;;;;;;;;;;;24.47;86.28;100662.84;5114828;28;20014;-67
2021/08/04 10:36:59;;;;;;;;;;;;;;;24.51;82.62;100653.03;5114170;28;20018;-67
2021/08/04 10:39:26;;;;;;;;;;;;;;;24.11;86.72;100657.84;5114523;28;19939;-67
2021/08/04 10:42:00;;;;;;;;;;;;;;;23.90;85.50;100651.44;5114499;28;19963;-67
2021/08/04 10:44:26;;;;;;;;;;;;;;;25.13;89.80;100662.81;5114547;28;20025;-67
2021/08/04 10:46:54;;;;;;;;;;;;;;;24.95;79.31;100655.19;5114080;28;20309;-72
2021/08/04 10:49:25;;;;;;;;;;;;;;;26.36;85.47;100655.84;5114390;28;19985;-68
2021/08/04 10:52:10;;;;;;;;;;;;;;;25.86;71.84;100659.50;5114496;27;19964;-67
2021/08/04 10:54:37;;;;;;;;;;;;;;;25.19;76.25;100659.16;5114244;28;20014;-67
2021/08/04 10:57:10;;;;;;;;;;;;;;;24.90;80.91;100653.94;5114026;28;20018;-72
2021/08/04 10:59:37;;;;;;;;;;;;;;;25.35;82.93;100657.78;5114032;28;19931;-68
2021/08/04 11:02:22;;;;;;;;;;;;;;;25.29;76.18;100655.88;5114064;28;20418;-67
2021/08/04 11:04:55;;;;;;;;;;;;;;;25.26;78.33;100657.16;5113940;28;19951;-71
2021/08/04 11:07:24;;;;;;;;;;;;;;;25.15;75.98;100655.94;5114091;28;20014;-71
2021/08/04 11:10:01;;;;;;;;;;;;;;;25.39;79.72;100647.94;5113945;28;19927;-72
2021/08/04 11:12:48;;;;;;;;;;;;;;;26.01;68.64;100647.19;5114014;28;19993;-71
2021/08/04 11:15:31;;;;;;;;;;;;;;;26.35;66.60;100636.56;5108730;28;19928;-71
2021/08/04 11:18:02;;;;;;;;;;;;;;;27.31;62.04;100641.53;5113807;28;19930;-68
2021/08/04 11:20:28;;;;;;;;;;;;;;;27.06;61.40;100648.13;5113867;28;19924;-67
2021/08/04 11:22:56;;;;;;;;;;;;;;;25.93;64.56;100644.69;5113621;27;20015;-73
2021/08/04 11:25:24;;;;;;;;;;;;;;;25.10;71.31;100641.03;5113963;28;19963;-73
2021/08/04 11:28:02;;;;;;;;;;;;;;;24.68;73.68;100649.78;5113359;28;20018;-73
2021/08/04 11:30:29;;;;;;;;;;;;;;;24.60;80.80;100638.91;5113896;28;19966;-72
2021/08/04 11:33:10;;;;;;;;;;;;;;;24.79;84.34;100642.72;5113323;28;19924;-73
2021/08/04 11:35:37;;;;;;;;;;;;;;;24.85;78.19;100653.78;5113308;28;19924;-67
2021/08/04 11:38:04;;;;;;;;;;;;;;;26.01;83.17;100647.19;5113076;28;19963;-68
2021/08/04 11:40:31;;;;;;;;;;;;;;;26.88;78.08;100644.31;5113249;28;19959;-67
2021/08/04 11:42:57;;;;;;;;;;;;;;;26.80;63.68;100639.03;5113396;28;19951;-67
2021/08/04 11:45:23;;;;;;;;;;;;;;;26.47;67.43;100640.28;5113175;28;19924;-68
2021/08/04 11:47:50;;;;;;;;;;;;;;;26.89;67.77;100643.19;5113030;28;20022;-67
2021/08/04 11:50:16;;;;;;;;;;;;;;;27.60;64.84;100639.81;5113128;28;19962;-67
2021/08/04 11:52:42;;;;;;;;;;;;;;;27.30;59.14;100640.69;5113489;28;20193;-73
2021/08/04 11:55:11;;;;;;;;;;;;;;;26.16;62.32;100639.38;5112918;28;19970;-73
2021/08/04 11:57:39;;;;;;;;;;;;;;;26.29;68.23;100643.06;5113034;28;19969;-73
2021/08/04 12:00:08;;;;;;;;;;;;;;;26.77;68.01;100638.66;5113082;28;20027;-73
2021/08/04 12:02:40;;;;;;;;;;;;;;;27.56;64.56;100642.22;5113096;28;20357;-73
2021/08/04 12:05:08;;;;;;;;;;;;;;;28.29;59.78;100635.56;5113133;28;19970;-73
2021/08/04 12:07:35;;;;;;;;;;;;;;;28.50;56.19;100632.16;5112643;28;20023;-67
2021/08/04 12:10:03;;;;;;;;;;;;;;;28.96;54.30;100628.63;5112930;28;19947;-67
2021/08/04 12:12:34;;;;;;;;;;;;;;;28.88;52.13;100633.50;5112782;28;19951;-67
2021/08/04 12:15:00;;;;;;;;;;;;;;;29.05;54.55;100629.94;5112681;28;20311;-67
2021/08/04 12:17:31;;;;;;;;;;;;;;;29.17;52.62;100627.91;5112402;28;19967;-67
2021/08/04 12:19:57;;;;;;;;;;;;;;;28.39;50.83;100627.44;5112442;28;19966;-67
2021/08/04 12:22:25;;;;;;;;;;;;;;;28.65;51.58;100625.22;5112722;28;19955;-67
2021/08/04 12:24:52;;;;;;;;;;;;;;;28.21;52.33;100625.66;5112520;28;19967;-67
2021/08/04 12:27:29;;;;;;;;;;;;;;;28.31;54.43;100622.25;5112150;28;19928;-67
2021/08/04 12:30:07;;;;;;;;;;;;;;;28.58;52.97;100616.94;5112412;28;19927;-67
2021/08/04 12:32:34;;;;;;;;;;;;;;;28.55;49.83;100615.53;5112589;28;19963;-74